URKA 170200Z AUTO 10002MPS 060V150 3200 BR NCD 09/07 Q1013 RMK QFE756/1008
QNH:(hPa/inHg/mmHg)1013 / 29.91 / 760
QFE:(hPa/inHg/mmHg)1006 / 29.72 / 755
Temperature9
Dew Point7
Visibility3200
WeatherMist
Cloud Cover
Transition Height1100 m./3800 ft.
Transition LevelFL50
SQUAWK